sensor_id;sensor_type;location;lat;lon;timestamp;pressure;altitude;pressure_sealevel;temperature;humidity
49825;BME280;35714;55.708;37.478;2023-04-16T00:02:22;100880.03;;;5.81;23.08
49825;BME280;35714;55.708;37.478;2023-04-16T00:04:49;100885.75;;;5.77;22.60
49825;BME280;35714;55.708;37.478;2023-04-16T00:07:15;100891.47;;;5.74;22.39
49825;BME280;35714;55.708;37.478;2023-04-16T00:09:40;100899.88;;;5.71;22.71
49825;BME280;35714;55.708;37.478;2023-04-16T00:12:06;100890.78;;;5.72;22.57
49825;BME280;35714;55.708;37.478;2023-04-16T00:14:32;100901.38;;;5.74;22.89
49825;BME280;35714;55.708;37.478;2023-04-16T00:16:57;100902.22;;;5.74;22.88
49825;BME280;35714;55.708;37.478;2023-04-16T00:19:23;100907.28;;;5.69;23.05
49825;BME280;35714;55.708;37.478;2023-04-16T00:21:48;100892.13;;;5.60;23.10
49825;BME280;35714;55.708;37.478;2023-04-16T00:24:14;100904.22;;;5.64;23.07
49825;BME280;35714;55.708;37.478;2023-04-16T00:26:40;100898.16;;;5.62;23.19
49825;BME280;35714;55.708;37.478;2023-04-16T00:29:08;100905.56;;;5.60;23.25
49825;BME280;35714;55.708;37.478;2023-04-16T00:31:35;100905.25;;;5.63;23.58
49825;BME280;35714;55.708;37.478;2023-04-16T00:34:03;100905.56;;;5.60;23.50
49825;BME280;35714;55.708;37.478;2023-04-16T00:36:28;100904.22;;;5.56;23.50
49825;BME280;35714;55.708;37.478;2023-04-16T00:42:15;100902.50;;;5.55;23.53
49825;BME280;35714;55.708;37.478;2023-04-16T00:44:41;100903.72;;;5.52;23.46
49825;BME280;35714;55.708;37.478;2023-04-16T00:47:07;100885.38;;;5.39;23.45
49825;BME280;35714;55.708;37.478;2023-04-16T00:49:37;100901.50;;;5.48;23.51
49825;BME280;35714;55.708;37.478;2023-04-16T00:52:05;100910.25;;;5.50;23.58
49825;BME280;35714;55.708;37.478;2023-04-16T00:54:31;100905.19;;;5.47;23.48
49825;BME280;35714;55.708;37.478;2023-04-16T00:56:57;100905.19;;;5.47;23.56
49825;BME280;35714;55.708;37.478;2023-04-16T00:59:23;100892.78;;;5.46;23.56
49825;BME280;35714;55.708;37.478;2023-04-16T01:01:49;100897.81;;;5.49;23.76
49825;BME280;35714;55.708;37.478;2023-04-16T01:04:15;100904.19;;;5.48;23.59
49825;BME280;35714;55.708;37.478;2023-04-16T01:06:41;100896.47;;;5.45;23.61
49825;BME280;35714;55.708;37.478;2023-04-16T01:09:09;100890.41;;;5.42;23.82
49825;BME280;35714;55.708;37.478;2023-04-16T01:11:36;100896.47;;;5.45;23.81
49825;BME280;35714;55.708;37.478;2023-04-16T01:14:02;100890.41;;;5.42;23.80
49825;BME280;35714;55.708;37.478;2023-04-16T01:16:28;100884.66;;;5.37;23.63
49825;BME280;35714;55.708;37.478;2023-04-16T01:18:54;100895.63;;;5.44;23.63
49825;BME280;35714;55.708;37.478;2023-04-16T01:21:19;100884.16;;;5.34;23.86
49825;BME280;35714;55.708;37.478;2023-04-16T01:23:45;100895.41;;;5.37;23.75
49825;BME280;35714;55.708;37.478;2023-04-16T01:26:11;100880.28;;;5.28;23.80
49825;BME280;35714;55.708;37.478;2023-04-16T01:28:36;100888.72;;;5.33;23.78
49825;BME280;35714;55.708;37.478;2023-04-16T01:31:02;100887.00;;;5.32;23.57
49825;BME280;35714;55.708;37.478;2023-04-16T01:33:44;100888.00;;;5.31;23.85
49825;BME280;35714;55.708;37.478;2023-04-16T01:36:11;100894.09;;;5.33;23.65
49825;BME280;35714;55.708;37.478;2023-04-16T01:38:36;100895.09;;;5.32;23.91
49825;BME280;35714;55.708;37.478;2023-04-16T01:41:02;100891.91;;;5.37;23.91
49825;BME280;35714;55.708;37.478;2023-04-16T01:43:27;100885.84;;;5.35;23.85
49825;BME280;35714;55.708;37.478;2023-04-16T01:46:10;100890.03;;;5.37;23.99
49825;BME280;35714;55.708;37.478;2023-04-16T01:48:36;100888.06;;;5.39;23.90
49825;BME280;35714;55.708;37.478;2023-04-16T01:51:02;100884.34;;;5.40;23.68
49825;BME280;35714;55.708;37.478;2023-04-16T01:53:29;100892.25;;;5.42;23.74
49825;BME280;35714;55.708;37.478;2023-04-16T01:55:55;100890.56;;;5.41;23.78
49825;BME280;35714;55.708;37.478;2023-04-16T01:58:21;100893.44;;;5.39;23.78
49825;BME280;35714;55.708;37.478;2023-04-16T02:00:46;100890.91;;;5.38;23.69
49825;BME280;35714;55.708;37.478;2023-04-16T02:03:12;100896.44;;;5.36;23.94
49825;BME280;35714;55.708;37.478;2023-04-16T02:05:38;100898.44;;;5.34;23.97
49825;BME280;35714;55.708;37.478;2023-04-16T02:08:04;100898.44;;;5.34;23.89
49825;BME280;35714;55.708;37.478;2023-04-16T02:10:29;100898.44;;;5.34;23.92
49825;BME280;35714;55.708;37.478;2023-04-16T02:12:56;100890.53;;;5.33;24.14
49825;BME280;35714;55.708;37.478;2023-04-16T02:15:22;100898.59;;;5.33;23.95
49825;BME280;35714;55.708;37.478;2023-04-16T02:17:50;100896.06;;;5.31;24.02
49825;BME280;35714;55.708;37.478;2023-04-16T02:20:21;100894.41;;;5.30;23.86
49825;BME280;35714;55.708;37.478;2023-04-16T02:22:53;100899.78;;;5.30;23.86
49825;BME280;35714;55.708;37.478;2023-04-16T02:25:21;100906.31;;;5.28;23.99
49825;BME280;35714;55.708;37.478;2023-04-16T02:27:48;100900.44;;;5.24;23.78
49825;BME280;35714;55.708;37.478;2023-04-16T02:30:23;100898.59;;;5.24;24.27
49825;BME280;35714;55.708;37.478;2023-04-16T02:32:50;100896.06;;;5.23;23.96
49825;BME280;35714;55.708;37.478;2023-04-16T02:35:16;100894.22;;;5.23;24.05
49825;BME280;35714;55.708;37.478;2023-04-16T02:37:44;100896.38;;;5.20;23.97
49825;BME280;35714;55.708;37.478;2023-04-16T02:40:10;100892.03;;;5.19;24.14
49825;BME280;35714;55.708;37.478;2023-04-16T02:42:36;100897.41;;;5.19;23.98
49825;BME280;35714;55.708;37.478;2023-04-16T02:45:02;100902.47;;;5.22;24.08
49825;BME280;35714;55.708;37.478;2023-04-16T02:47:31;100897.41;;;5.19;23.99
49825;BME280;35714;55.708;37.478;2023-04-16T02:49:56;100901.75;;;5.20;23.82
49825;BME280;35714;55.708;37.478;2023-04-16T02:52:22;100897.41;;;5.19;24.12
49825;BME280;35714;55.708;37.478;2023-04-16T02:54:48;100899.41;;;5.17;24.08
49825;BME280;35714;55.708;37.478;2023-04-16T02:57:13;100903.13;;;5.16;24.10
49825;BME280;35714;55.708;37.478;2023-04-16T02:59:39;100903.94;;;5.16;24.19
49825;BME280;35714;55.708;37.478;2023-04-16T03:02:05;100908.34;;;5.17;24.01
49825;BME280;35714;55.708;37.478;2023-04-16T03:04:31;100898.72;;;5.15;24.14
49825;BME280;35714;55.708;37.478;2023-04-16T03:06:57;100913.22;;;5.22;24.11
49825;BME280;35714;55.708;37.478;2023-04-16T03:09:23;100903.28;;;5.22;24.44
49825;BME280;35714;55.708;37.478;2023-04-16T03:11:48;100909.50;;;5.23;24.18
49825;BME280;35714;55.708;37.478;2023-04-16T03:14:14;100906.66;;;5.24;24.17
49825;BME280;35714;55.708;37.478;2023-04-16T03:16:40;100904.31;;;5.30;24.06
49825;BME280;35714;55.708;37.478;2023-04-16T03:19:05;100908.53;;;5.32;24.30
49825;BME280;35714;55.708;37.478;2023-04-16T03:21:31;100912.44;;;5.38;24.08
49825;BME280;35714;55.708;37.478;2023-04-16T03:23:57;100914.63;;;5.42;24.24
49825;BME280;35714;55.708;37.478;2023-04-16T03:26:23;100915.97;;;5.47;24.10
49825;BME280;35714;55.708;37.478;2023-04-16T03:28:49;100916.66;;;5.49;23.88
49825;BME280;35714;55.708;37.478;2023-04-16T03:31:15;100913.28;;;5.55;23.88
49825;BME280;35714;55.708;37.478;2023-04-16T03:33:41;100914.66;;;5.59;24.02
49825;BME280;35714;55.708;37.478;2023-04-16T03:36:07;100908.94;;;5.62;23.80
49825;BME280;35714;55.708;37.478;2023-04-16T03:38:33;100916.66;;;5.65;23.77
49825;BME280;35714;55.708;37.478;2023-04-16T03:40:59;100917.34;;;5.67;23.69
49825;BME280;35714;55.708;37.478;2023-04-16T03:43:25;100916.00;;;5.71;23.71
49825;BME280;35714;55.708;37.478;2023-04-16T03:45:51;100915.19;;;5.79;23.68
49825;BME280;35714;55.708;37.478;2023-04-16T03:48:20;100907.28;;;5.86;23.76
49825;BME280;35714;55.708;37.478;2023-04-16T03:50:46;100909.28;;;5.92;23.72
49825;BME280;35714;55.708;37.478;2023-04-16T03:53:14;100907.66;;;5.99;23.75
49825;BME280;35714;55.708;37.478;2023-04-16T03:55:41;100915.91;;;6.06;23.70
49825;BME280;35714;55.708;37.478;2023-04-16T03:58:08;100909.34;;;6.08;23.42
49825;BME280;35714;55.708;37.478;2023-04-16T04:00:34;100909.66;;;6.13;23.29
49825;BME280;35714;55.708;37.478;2023-04-16T04:03:07;100914.22;;;6.21;23.35
49825;BME280;35714;55.708;37.478;2023-04-16T04:05:39;100917.22;;;6.26;23.15
49825;BME280;35714;55.708;37.478;2023-04-16T04:08:08;100913.03;;;6.32;23.16
49825;BME280;35714;55.708;37.478;2023-04-16T04:10:35;100909.81;;;6.45;22.84
49825;BME280;35714;55.708;37.478;2023-04-16T04:13:03;100914.66;;;6.58;22.43
49825;BME280;35714;55.708;37.478;2023-04-16T04:15:29;100915.47;;;6.66;22.64
49825;BME280;35714;55.708;37.478;2023-04-16T04:17:55;100914.94;;;6.71;22.47
49825;BME280;35714;55.708;37.478;2023-04-16T04:20:22;100910.56;;;6.78;22.61
49825;BME280;35714;55.708;37.478;2023-04-16T04:22:49;100914.91;;;6.88;22.42
49825;BME280;35714;55.708;37.478;2023-04-16T04:25:16;100900.25;;;6.90;22.27
49825;BME280;35714;55.708;37.478;2023-04-16T04:27:42;100909.44;;;7.04;22.26
49825;BME280;35714;55.708;37.478;2023-04-16T04:30:08;100903.53;;;7.09;22.06
49825;BME280;35714;55.708;37.478;2023-04-16T04:32:34;100914.41;;;7.23;21.77
49825;BME280;35714;55.708;37.478;2023-04-16T04:35:01;100903.59;;;7.32;21.69
49825;BME280;35714;55.708;37.478;2023-04-16T04:37:30;100910.97;;;7.38;21.55
49825;BME280;35714;55.708;37.478;2023-04-16T04:39:56;100911.59;;;7.48;21.37
49825;BME280;35714;55.708;37.478;2023-04-16T04:42:23;100910.69;;;7.56;21.15
49825;BME280;35714;55.708;37.478;2023-04-16T04:44:49;100908.50;;;7.59;21.21
49825;BME280;35714;55.708;37.478;2023-04-16T04:47:15;100911.78;;;7.70;21.05
49825;BME280;35714;55.708;37.478;2023-04-16T04:49:40;100905.59;;;7.84;21.06
49825;BME280;35714;55.708;37.478;2023-04-16T04:52:07;100914.47;;;7.93;20.83
49825;BME280;35714;55.708;37.478;2023-04-16T04:54:33;100904.81;;;7.99;20.79
49825;BME280;35714;55.708;37.478;2023-04-16T04:56:59;100910.88;;;8.01;20.57
49825;BME280;35714;55.708;37.478;2023-04-16T04:59:26;100915.56;;;8.07;20.47
49825;BME280;35714;55.708;37.478;2023-04-16T05:01:52;100910.72;;;8.17;20.70
49825;BME280;35714;55.708;37.478;2023-04-16T05:04:18;100912.63;;;8.31;20.22
49825;BME280;35714;55.708;37.478;2023-04-16T05:06:44;100916.59;;;8.44;20.45
49825;BME280;35714;55.708;37.478;2023-04-16T05:09:10;100913.72;;;8.60;20.51
49825;BME280;35714;55.708;37.478;2023-04-16T05:11:37;100910.84;;;8.77;20.15
49825;BME280;35714;55.708;37.478;2023-04-16T05:14:03;100921.47;;;8.93;19.99
49825;BME280;35714;55.708;37.478;2023-04-16T05:16:29;100918.69;;;9.01;19.64
49825;BME280;35714;55.708;37.478;2023-04-16T05:18:55;100916.22;;;9.07;19.33
49825;BME280;35714;55.708;37.478;2023-04-16T05:21:23;100913.53;;;9.07;19.39
49825;BME280;35714;55.708;37.478;2023-04-16T05:23:48;100917.94;;;9.08;19.55
49825;BME280;35714;55.708;37.478;2023-04-16T05:26:14;100911.38;;;9.17;19.29
49825;BME280;35714;55.708;37.478;2023-04-16T05:28:40;100909.38;;;9.26;19.22
49825;BME280;35714;55.708;37.478;2023-04-16T05:31:05;100916.75;;;9.32;18.75
49825;BME280;35714;55.708;37.478;2023-04-16T05:33:31;100921.16;;;9.33;18.45
49825;BME280;35714;55.708;37.478;2023-04-16T05:35:57;100919.00;;;9.28;18.42
49825;BME280;35714;55.708;37.478;2023-04-16T05:38:22;100907.72;;;9.25;18.46
49825;BME280;35714;55.708;37.478;2023-04-16T05:40:48;100913.22;;;9.31;18.53
49825;BME280;35714;55.708;37.478;2023-04-16T05:43:14;100901.63;;;9.37;18.79
49825;BME280;35714;55.708;37.478;2023-04-16T05:45:39;100901.38;;;9.54;18.22
49825;BME280;35714;55.708;37.478;2023-04-16T05:48:06;100902.75;;;9.65;17.95
49825;BME280;35714;55.708;37.478;2023-04-16T05:50:34;100894.31;;;9.74;18.40
49825;BME280;35714;55.708;37.478;2023-04-16T05:53:04;100892.91;;;10.00;18.18
49825;BME280;35714;55.708;37.478;2023-04-16T05:55:30;100900.28;;;10.35;18.07
49825;BME280;35714;55.708;37.478;2023-04-16T05:57:56;100900.69;;;10.60;17.67
49825;BME280;35714;55.708;37.478;2023-04-16T06:00:22;100891.19;;;10.77;16.91
49825;BME280;35714;55.708;37.478;2023-04-16T06:02:48;100891.00;;;10.86;16.88
49825;BME280;35714;55.708;37.478;2023-04-16T06:05:13;100895.31;;;11.08;17.24
49825;BME280;35714;55.708;37.478;2023-04-16T06:07:39;100892.69;;;11.35;16.71
49825;BME280;35714;55.708;37.478;2023-04-16T06:10:05;100890.69;;;11.64;16.01
49825;BME280;35714;55.708;37.478;2023-04-16T06:12:31;100894.69;;;11.81;15.73
49825;BME280;35714;55.708;37.478;2023-04-16T06:14:57;100889.03;;;11.89;15.64
49825;BME280;35714;55.708;37.478;2023-04-16T06:17:22;100895.34;;;11.97;15.35
49825;BME280;35714;55.708;37.478;2023-04-16T06:19:48;100900.78;;;11.97;15.22
49825;BME280;35714;55.708;37.478;2023-04-16T06:22:14;100892.84;;;11.95;15.29
49825;BME280;35714;55.708;37.478;2023-04-16T06:24:40;100896.59;;;12.01;15.12
49825;BME280;35714;55.708;37.478;2023-04-16T06:27:06;100883.66;;;12.16;15.50
49825;BME280;35714;55.708;37.478;2023-04-16T06:29:31;100888.22;;;12.49;15.00
49825;BME280;35714;55.708;37.478;2023-04-16T06:31:57;100895.75;;;12.67;14.70
49825;BME280;35714;55.708;37.478;2023-04-16T06:34:23;100884.34;;;12.90;14.53
49825;BME280;35714;55.708;37.478;2023-04-16T06:36:48;100887.00;;;13.10;14.52
49825;BME280;35714;55.708;37.478;2023-04-16T06:39:14;100886.28;;;13.42;14.03
49825;BME280;35714;55.708;37.478;2023-04-16T06:41:40;100888.34;;;13.46;13.90
49825;BME280;35714;55.708;37.478;2023-04-16T06:44:05;100876.97;;;13.56;13.87
49825;BME280;35714;55.708;37.478;2023-04-16T06:46:31;100885.19;;;13.81;13.31
49825;BME280;35714;55.708;37.478;2023-04-16T06:48:57;100883.03;;;13.90;13.55
49825;BME280;35714;55.708;37.478;2023-04-16T06:51:22;100872.28;;;13.95;13.47
49825;BME280;35714;55.708;37.478;2023-04-16T06:53:48;100883.19;;;13.95;13.25
49825;BME280;35714;55.708;37.478;2023-04-16T06:56:14;100873.31;;;14.01;13.05
49825;BME280;35714;55.708;37.478;2023-04-16T06:58:40;100880.31;;;13.90;13.03
49825;BME280;35714;55.708;37.478;2023-04-16T07:01:05;100883.03;;;13.90;13.45
49825;BME280;35714;55.708;37.478;2023-04-16T07:03:31;100879.59;;;14.01;13.35
49825;BME280;35714;55.708;37.478;2023-04-16T07:05:57;100880.63;;;14.25;13.27
49825;BME280;35714;55.708;37.478;2023-04-16T07:08:22;100885.47;;;14.49;13.37
49825;BME280;35714;55.708;37.478;2023-04-16T07:10:49;100887.75;;;14.95;12.64
49825;BME280;35714;55.708;37.478;2023-04-16T07:13:14;100881.72;;;14.87;12.78
49825;BME280;35714;55.708;37.478;2023-04-16T07:15:40;100887.41;;;14.85;12.66
49825;BME280;35714;55.708;37.478;2023-04-16T07:18:06;100889.94;;;14.68;12.73
49825;BME280;35714;55.708;37.478;2023-04-16T07:20:31;100880.34;;;14.59;12.92
49825;BME280;35714;55.708;37.478;2023-04-16T07:22:57;100878.53;;;14.71;13.12
49825;BME280;35714;55.708;37.478;2023-04-16T07:25:24;100875.06;;;14.83;12.86
49825;BME280;35714;55.708;37.478;2023-04-16T07:27:50;100876.72;;;14.84;12.75
49825;BME280;35714;55.708;37.478;2023-04-16T07:30:16;100879.91;;;14.99;12.82
49825;BME280;35714;55.708;37.478;2023-04-16T07:32:42;100878.22;;;14.98;12.31
49825;BME280;35714;55.708;37.478;2023-04-16T07:35:08;100875.97;;;14.76;12.33
49825;BME280;35714;55.708;37.478;2023-04-16T07:37:33;100884.94;;;14.65;12.75
49825;BME280;35714;55.708;37.478;2023-04-16T07:39:59;100878.53;;;14.71;12.50
49825;BME280;35714;55.708;37.478;2023-04-16T07:42:26;100877.94;;;14.88;12.23
49825;BME280;35714;55.708;37.478;2023-04-16T07:44:53;100867.31;;;14.98;12.50
49825;BME280;35714;55.708;37.478;2023-04-16T07:47:19;100867.72;;;15.32;12.13
49825;BME280;35714;55.708;37.478;2023-04-16T07:49:45;100874.34;;;15.55;11.74
49825;BME280;35714;55.708;37.478;2023-04-16T07:52:11;100871.47;;;15.49;11.95
49825;BME280;35714;55.708;37.478;2023-04-16T07:54:36;100868.81;;;15.73;12.12
49825;BME280;35714;55.708;37.478;2023-04-16T07:57:02;100865.09;;;15.98;11.91
49825;BME280;35714;55.708;37.478;2023-04-16T07:59:27;100867.16;;;16.38;12.09
49825;BME280;35714;55.708;37.478;2023-04-16T08:01:53;100857.84;;;16.86;11.40
49825;BME280;35714;55.708;37.478;2023-04-16T08:04:19;100855.50;;;17.47;11.65
49825;BME280;35714;55.708;37.478;2023-04-16T08:06:50;100861.25;;;18.09;11.40
49825;BME280;35714;55.708;37.478;2023-04-16T08:09:16;100852.19;;;18.25;10.40
49825;BME280;35714;55.708;37.478;2023-04-16T08:11:41;100858.25;;;18.27;9.77
49825;BME280;35714;55.708;37.478;2023-04-16T08:14:07;100848.75;;;18.35;9.80
49825;BME280;35714;55.708;37.478;2023-04-16T08:16:33;100848.56;;;18.42;9.34
49825;BME280;35714;55.708;37.478;2023-04-16T08:18:59;100848.41;;;18.48;9.34
49825;BME280;35714;55.708;37.478;2023-04-16T08:21:28;100851.69;;;18.67;9.36
49825;BME280;35714;55.708;37.478;2023-04-16T08:23:55;100839.16;;;19.21;9.19
49825;BME280;35714;55.708;37.478;2023-04-16T08:26:20;100852.84;;;19.65;8.62
49825;BME280;35714;55.708;37.478;2023-04-16T08:28:46;100844.53;;;19.60;8.84
49825;BME280;35714;55.708;37.478;2023-04-16T08:31:11;100834.34;;;19.82;8.61
49825;BME280;35714;55.708;37.478;2023-04-16T08:33:39;100839.94;;;19.98;8.15
49825;BME280;35714;55.708;37.478;2023-04-16T08:36:05;100830.63;;;20.04;8.03
49825;BME280;35714;55.708;37.478;2023-04-16T08:38:30;100837.94;;;20.26;7.88
49825;BME280;35714;55.708;37.478;2023-04-16T08:41:02;100833.06;;;20.33;7.60
49825;BME280;35714;55.708;37.478;2023-04-16T08:43:32;100836.63;;;20.76;7.69
49825;BME280;35714;55.708;37.478;2023-04-16T08:45:59;100833.88;;;20.81;7.64
49825;BME280;35714;55.708;37.478;2023-04-16T08:48:28;100818.00;;;21.09;7.19
49825;BME280;35714;55.708;37.478;2023-04-16T08:50:59;100816.19;;;21.66;7.69
49825;BME280;35714;55.708;37.478;2023-04-16T08:53:35;100824.16;;;22.50;7.52
49825;BME280;35714;55.708;37.478;2023-04-16T08:56:08;100815.44;;;22.93;7.27
49825;BME280;35714;55.708;37.478;2023-04-16T08:58:36;100822.28;;;23.11;6.72
49825;BME280;35714;55.708;37.478;2023-04-16T09:01:04;100811.44;;;22.49;6.52
49825;BME280;35714;55.708;37.478;2023-04-16T09:03:31;100817.84;;;22.13;7.35
49825;BME280;35714;55.708;37.478;2023-04-16T09:05:57;100816.16;;;22.17;7.55
49825;BME280;35714;55.708;37.478;2023-04-16T09:08:25;100804.28;;;22.38;6.71
49825;BME280;35714;55.708;37.478;2023-04-16T09:10:50;100803.16;;;22.49;7.08
49825;BME280;35714;55.708;37.478;2023-04-16T09:13:18;100801.34;;;22.84;6.94
49825;BME280;35714;55.708;37.478;2023-04-16T09:15:45;100799.59;;;23.09;7.07
49825;BME280;35714;55.708;37.478;2023-04-16T09:18:11;100807.13;;;23.48;7.34
49825;BME280;35714;55.708;37.478;2023-04-16T09:20:37;100810.09;;;23.91;7.04
49825;BME280;35714;55.708;37.478;2023-04-16T09:23:03;100810.75;;;23.77;6.17
49825;BME280;35714;55.708;37.478;2023-04-16T09:25:35;100809.41;;;23.35;6.47
49825;BME280;35714;55.708;37.478;2023-04-16T09:28:01;100808.56;;;22.75;7.21
49825;BME280;35714;55.708;37.478;2023-04-16T09:30:27;100808.69;;;22.44;6.90
49825;BME280;35714;55.708;37.478;2023-04-16T09:33:19;100816.50;;;21.90;7.93
49825;BME280;35714;55.708;37.478;2023-04-16T09:35:49;100811.19;;;21.48;7.83
49825;BME280;35714;55.708;37.478;2023-04-16T09:38:15;100801.53;;;21.45;7.90
49825;BME280;35714;55.708;37.478;2023-04-16T09:40:41;100799.84;;;21.39;7.77
49825;BME280;35714;55.708;37.478;2023-04-16T09:43:11;100803.25;;;21.61;7.89
49825;BME280;35714;55.708;37.478;2023-04-16T09:45:53;100793.56;;;22.10;8.15
49825;BME280;35714;55.708;37.478;2023-04-16T09:48:32;100802.53;;;22.67;7.80
49825;BME280;35714;55.708;37.478;2023-04-16T09:50:59;100797.94;;;23.13;7.16
49825;BME280;35714;55.708;37.478;2023-04-16T09:53:29;100803.66;;;23.27;7.05
49825;BME280;35714;55.708;37.478;2023-04-16T09:56:00;100800.34;;;22.64;6.93
49825;BME280;35714;55.708;37.478;2023-04-16T09:58:26;100798.78;;;22.12;7.26
49825;BME280;35714;55.708;37.478;2023-04-16T10:01:11;100799.59;;;22.17;7.72
49825;BME280;35714;55.708;37.478;2023-04-16T10:03:39;100806.97;;;22.63;7.50
49825;BME280;35714;55.708;37.478;2023-04-16T10:08:45;100786.91;;;23.82;6.70
49825;BME280;35714;55.708;37.478;2023-04-16T10:11:11;100787.38;;;24.23;6.93
49825;BME280;35714;55.708;37.478;2023-04-16T10:13:37;100780.88;;;24.81;6.38
49825;BME280;35714;55.708;37.478;2023-04-16T10:16:03;100784.56;;;24.96;6.34
49825;BME280;35714;55.708;37.478;2023-04-16T10:18:29;100781.56;;;25.68;6.59
49825;BME280;35714;55.708;37.478;2023-04-16T10:20:56;100780.41;;;26.77;6.12
49825;BME280;35714;55.708;37.478;2023-04-16T10:23:22;100779.16;;;28.01;6.06
49825;BME280;35714;55.708;37.478;2023-04-16T10:25:48;100773.44;;;29.04;5.35
49825;BME280;35714;55.708;37.478;2023-04-16T10:28:15;100794.34;;;29.50;4.42
49825;BME280;35714;55.708;37.478;2023-04-16T10:30:44;100785.53;;;28.73;4.53
49825;BME280;35714;55.708;37.478;2023-04-16T10:33:38;100770.50;;;27.35;4.65
49825;BME280;35714;55.708;37.478;2023-04-16T10:36:12;100773.81;;;26.59;5.07
49825;BME280;35714;55.708;37.478;2023-04-16T10:38:47;100768.31;;;26.95;5.77
49825;BME280;35714;55.708;37.478;2023-04-16T10:41:13;100763.72;;;27.72;5.63
49825;BME280;35714;55.708;37.478;2023-04-16T10:43:44;100776.53;;;28.36;5.40
49825;BME280;35714;55.708;37.478;2023-04-16T10:46:21;100772.88;;;28.67;5.25
49825;BME280;35714;55.708;37.478;2023-04-16T10:48:49;100771.63;;;28.82;5.17
49825;BME280;35714;55.708;37.478;2023-04-16T10:51:24;100768.03;;;29.43;4.51
49825;BME280;35714;55.708;37.478;2023-04-16T10:53:54;100761.94;;;29.84;4.56
49825;BME280;35714;55.708;37.478;2023-04-16T10:56:26;100763.59;;;29.85;4.17
49825;BME280;35714;55.708;37.478;2023-04-16T10:58:53;100765.56;;;29.41;3.98
49825;BME280;35714;55.708;37.478;2023-04-16T11:01:30;100760.13;;;29.01;4.50
49825;BME280;35714;55.708;37.478;2023-04-16T11:03:59;100763.13;;;29.40;4.92
49825;BME280;35714;55.708;37.478;2023-04-16T11:06:26;100762.69;;;30.02;4.42
49825;BME280;35714;55.708;37.478;2023-04-16T11:08:53;100761.19;;;30.52;4.49
49825;BME280;35714;55.708;37.478;2023-04-16T11:11:19;100757.88;;;30.20;3.57
49825;BME280;35714;55.708;37.478;2023-04-16T11:13:45;100758.50;;;29.17;3.69
49825;BME280;35714;55.708;37.478;2023-04-16T11:16:12;100744.78;;;28.55;4.89
49825;BME280;35714;55.708;37.478;2023-04-16T11:18:38;100743.19;;;28.89;4.81
49825;BME280;35714;55.708;37.478;2023-04-16T11:21:11;100749.47;;;29.21;4.32
49825;BME280;35714;55.708;37.478;2023-04-16T11:23:48;100753.75;;;29.27;3.77
49825;BME280;35714;55.708;37.478;2023-04-16T11:26:29;100735.00;;;28.84;3.75
49825;BME280;35714;55.708;37.478;2023-04-16T11:28:57;100730.75;;;27.97;4.37
49825;BME280;35714;55.708;37.478;2023-04-16T11:31:24;100735.97;;;27.45;4.82
49825;BME280;35714;55.708;37.478;2023-04-16T11:33:51;100723.97;;;26.99;4.90
49825;BME280;35714;55.708;37.478;2023-04-16T11:36:18;100726.56;;;27.18;4.84
49825;BME280;35714;55.708;37.478;2023-04-16T11:38:45;100736.78;;;26.86;4.77
49825;BME280;35714;55.708;37.478;2023-04-16T11:41:18;100727.94;;;26.84;4.66
49825;BME280;35714;55.708;37.478;2023-04-16T11:43:44;100724.19;;;27.03;4.79
49825;BME280;35714;55.708;37.478;2023-04-16T11:46:10;100710.44;;;26.70;4.90
49825;BME280;35714;55.708;37.478;2023-04-16T11:48:52;100718.91;;;26.37;5.25
49825;BME280;35714;55.708;37.478;2023-04-16T11:51:19;100723.53;;;25.67;5.50
49825;BME280;35714;55.708;37.478;2023-04-16T11:53:50;100710.78;;;25.66;5.43
49825;BME280;35714;55.708;37.478;2023-04-16T11:56:28;100704.19;;;26.22;5.29
49825;BME280;35714;55.708;37.478;2023-04-16T11:59:21;100717.72;;;27.16;5.35
49825;BME280;35714;55.708;37.478;2023-04-16T12:01:52;100706.06;;;27.82;4.85
49825;BME280;35714;55.708;37.478;2023-04-16T12:04:19;100707.84;;;28.09;4.02
49825;BME280;35714;55.708;37.478;2023-04-16T12:07:07;100691.72;;;27.97;4.98
49825;BME280;35714;55.708;37.478;2023-04-16T12:09:34;100692.00;;;28.27;4.54
49825;BME280;35714;55.708;37.478;2023-04-16T12:12:00;100689.09;;;28.41;4.36
49825;BME280;35714;55.708;37.478;2023-04-16T12:14:27;100699.53;;;28.93;4.53
49825;BME280;35714;55.708;37.478;2023-04-16T12:16:53;100690.31;;;28.84;4.47
49825;BME280;35714;55.708;37.478;2023-04-16T12:19:19;100680.06;;;28.44;4.33
49825;BME280;35714;55.708;37.478;2023-04-16T12:21:47;100677.34;;;28.61;4.66
49825;BME280;35714;55.708;37.478;2023-04-16T12:24:15;100670.47;;;28.85;4.81
49825;BME280;35714;55.708;37.478;2023-04-16T12:26:46;100679.47;;;29.43;4.49
49825;BME280;35714;55.708;37.478;2023-04-16T12:29:20;100681.13;;;30.30;4.09
49825;BME280;35714;55.708;37.478;2023-04-16T12:31:50;100675.72;;;30.76;3.73
49825;BME280;35714;55.708;37.478;2023-04-16T12:34:17;100672.50;;;30.65;3.53
49825;BME280;35714;55.708;37.478;2023-04-16T12:36:44;100673.34;;;30.66;3.41
49825;BME280;35714;55.708;37.478;2023-04-16T12:39:11;100659.94;;;29.91;3.62
49825;BME280;35714;55.708;37.478;2023-04-16T12:41:41;100665.81;;;29.98;3.90
49825;BME280;35714;55.708;37.478;2023-04-16T12:44:09;100687.19;;;30.32;3.80
49825;BME280;35714;55.708;37.478;2023-04-16T12:46:38;100671.72;;;29.49;4.00
49825;BME280;35714;55.708;37.478;2023-04-16T12:49:04;100646.31;;;28.63;4.35
49825;BME280;35714;55.708;37.478;2023-04-16T12:51:30;100662.31;;;28.31;4.53
49825;BME280;35714;55.708;37.478;2023-04-16T12:53:56;100655.69;;;28.10;4.59
49825;BME280;35714;55.708;37.478;2023-04-16T12:56:22;100659.13;;;27.21;4.63